createdAt,value
2023-05-23T00:01:22.911Z,98.06
2023-05-23T00:03:54.135Z,98.63
2023-05-23T00:06:24.229Z,99.61
2023-05-23T00:08:54.075Z,100.00
2023-05-23T00:11:27.399Z,100.00
2023-05-23T00:13:57.718Z,100.00
2023-05-23T00:16:27.371Z,100.00
2023-05-23T00:18:57.944Z,100.00
2023-05-23T00:21:27.811Z,100.00
2023-05-23T00:23:58.373Z,100.00
2023-05-23T00:26:31.517Z,100.00
2023-05-23T00:29:01.273Z,100.00
2023-05-23T00:31:31.917Z,100.00
2023-05-23T00:34:01.691Z,100.00
2023-05-23T00:36:31.356Z,100.00
2023-05-23T00:39:02.586Z,100.00
2023-05-23T00:41:36.752Z,100.00
2023-05-23T00:44:06.602Z,100.00
2023-05-23T00:46:36.310Z,100.00
2023-05-23T00:49:06.302Z,100.00
2023-05-23T00:51:36.688Z,100.00
2023-05-23T00:54:08.892Z,100.00
2023-05-23T00:56:44.099Z,100.00
2023-05-23T00:59:14.984Z,100.00
2023-05-23T01:01:47.588Z,100.00
2023-05-23T01:04:18.152Z,100.00
2023-05-23T01:06:49.445Z,100.00
2023-05-23T01:09:21.141Z,100.00
2023-05-23T01:12:05.814Z,100.00
2023-05-23T01:14:45.225Z,100.00
2023-05-23T01:17:20.790Z,100.00
2023-05-23T01:20:02.327Z,100.00
2023-05-23T01:22:47.085Z,100.00
2023-05-23T01:25:31.179Z,100.00
2023-05-23T01:28:06.334Z,100.00
2023-05-23T01:30:41.608Z,100.00
2023-05-23T01:33:12.731Z,100.00
2023-05-23T01:35:43.978Z,100.00
2023-05-23T01:38:13.681Z,100.00
2023-05-23T01:40:43.395Z,100.00
2023-05-23T01:43:15.658Z,100.00
2023-05-23T01:45:46.194Z,100.00
2023-05-23T01:48:18.367Z,100.00
2023-05-23T01:50:48.857Z,100.00
2023-05-23T01:53:20.471Z,100.00
2023-05-23T01:55:50.608Z,100.00
2023-05-23T01:58:23.113Z,100.00
2023-05-23T02:00:52.939Z,100.00
2023-05-23T02:03:22.838Z,100.00
2023-05-23T02:05:52.623Z,100.00
2023-05-23T02:08:22.245Z,100.00
2023-05-23T02:10:52.098Z,100.00
2023-05-23T02:13:24.322Z,100.00
2023-05-23T02:15:53.951Z,100.00
2023-05-23T02:18:26.442Z,100.00
2023-05-23T02:20:56.444Z,100.00
2023-05-23T02:23:26.386Z,100.00
2023-05-23T02:25:56.467Z,100.00
2023-05-23T02:28:28.678Z,100.00
2023-05-23T02:30:58.492Z,100.00
2023-05-23T02:33:28.166Z,100.00
2023-05-23T02:35:57.984Z,100.00
2023-05-23T02:38:27.688Z,100.00
2023-05-23T02:40:57.850Z,100.00
2023-05-23T02:43:30.751Z,100.00
2023-05-23T02:46:00.468Z,100.00
2023-05-23T02:48:30.140Z,100.00
2023-05-23T02:50:59.930Z,100.00
2023-05-23T02:53:29.686Z,100.00
2023-05-23T02:55:59.316Z,100.00
2023-05-23T02:58:32.119Z,100.00
2023-05-23T03:01:01.762Z,100.00
2023-05-23T03:03:31.870Z,100.00
2023-05-23T03:06:01.714Z,100.00
2023-05-23T03:08:31.343Z,100.00
2023-05-23T03:11:01.178Z,100.00
2023-05-23T03:13:33.634Z,100.00
2023-05-23T03:16:03.475Z,100.00
2023-05-23T03:18:33.380Z,100.00
2023-05-23T03:21:03.847Z,100.00
2023-05-23T03:23:33.502Z,100.00
2023-05-23T03:26:03.765Z,100.00
2023-05-23T03:28:36.712Z,100.00
2023-05-23T03:31:06.520Z,100.00
2023-05-23T03:33:38.862Z,100.00
2023-05-23T03:36:10.252Z,100.00
2023-05-23T03:38:40.201Z,100.00
2023-05-23T03:41:10.229Z,100.00
2023-05-23T03:43:42.520Z,100.00
2023-05-23T03:46:12.282Z,100.00
2023-05-23T03:48:42.083Z,100.00
2023-05-23T03:51:13.691Z,100.00
2023-05-23T03:53:43.406Z,100.00
2023-05-23T03:56:13.585Z,100.00
2023-05-23T03:58:46.260Z,99.00
2023-05-23T04:01:15.921Z,96.55
2023-05-23T04:03:45.622Z,92.23
2023-05-23T04:06:15.347Z,87.89
2023-05-23T04:08:47.663Z,85.99
2023-05-23T04:11:18.014Z,85.32
2023-05-23T04:13:50.295Z,87.03
2023-05-23T04:16:20.138Z,89.53
2023-05-23T04:18:50.401Z,92.53
2023-05-23T04:21:20.051Z,93.88
2023-05-23T04:23:49.814Z,93.68
2023-05-23T04:26:19.621Z,92.71
2023-05-23T04:28:54.528Z,89.35
2023-05-23T04:31:25.618Z,88.26
2023-05-23T04:33:55.349Z,84.45
2023-05-23T04:36:25.925Z,80.78
2023-05-23T04:38:56.060Z,76.54
2023-05-23T04:41:26.153Z,72.54
2023-05-23T04:43:58.656Z,73.00
2023-05-23T04:46:29.285Z,75.55
2023-05-23T04:48:59.246Z,77.10
2023-05-23T04:51:28.864Z,76.09
2023-05-23T04:53:58.758Z,73.45
2023-05-23T04:56:29.273Z,70.38
2023-05-23T04:59:01.621Z,71.03
2023-05-23T05:01:31.627Z,68.32
2023-05-23T05:04:01.476Z,67.05
2023-05-23T05:06:31.393Z,66.79
2023-05-23T05:09:01.314Z,66.65
2023-05-23T05:11:31.385Z,67.78
2023-05-23T05:14:03.587Z,64.42
2023-05-23T05:16:33.630Z,65.34
2023-05-23T05:19:03.853Z,66.09
2023-05-23T05:21:34.091Z,60.97
2023-05-23T05:24:03.705Z,61.75
2023-05-23T05:26:33.783Z,60.17
2023-05-23T05:29:06.206Z,59.04
2023-05-23T05:31:36.145Z,59.84
2023-05-23T05:34:06.195Z,59.35
2023-05-23T05:36:35.907Z,58.45
2023-05-23T05:39:08.190Z,60.60
2023-05-23T05:41:37.918Z,60.92
2023-05-23T05:44:10.206Z,65.15
2023-05-23T05:46:40.011Z,64.71
2023-05-23T05:49:10.380Z,64.38
2023-05-23T05:51:41.992Z,63.38
2023-05-23T05:54:11.777Z,58.96
2023-05-23T05:56:42.440Z,59.89
2023-05-23T05:59:14.679Z,59.21
2023-05-23T06:01:45.096Z,55.59
2023-05-23T06:04:14.994Z,57.19
2023-05-23T06:06:44.662Z,54.17
2023-05-23T06:09:14.339Z,53.29
2023-05-23T06:11:43.931Z,51.68
2023-05-23T06:14:16.113Z,50.00
2023-05-23T06:16:46.459Z,49.94
2023-05-23T06:19:16.432Z,49.39
2023-05-23T06:21:48.844Z,47.29
2023-05-23T06:24:18.456Z,43.95
2023-05-23T06:26:48.070Z,44.68
2023-05-23T06:29:20.356Z,44.93
2023-05-23T06:31:50.067Z,45.42
2023-05-23T06:34:19.797Z,48.81
2023-05-23T06:36:49.404Z,48.08
2023-05-23T06:39:20.647Z,49.45
2023-05-23T06:41:51.749Z,49.13
2023-05-23T06:44:23.893Z,48.53
2023-05-23T06:46:57.582Z,48.83
2023-05-23T06:49:27.530Z,47.51
2023-05-23T06:51:57.226Z,46.97
2023-05-23T06:54:26.947Z,47.28
2023-05-23T06:56:56.634Z,48.79
2023-05-23T06:59:28.812Z,48.56
2023-05-23T07:01:58.444Z,48.20
2023-05-23T07:04:28.067Z,48.38
2023-05-23T07:06:57.680Z,49.63
2023-05-23T07:09:27.329Z,49.75
2023-05-23T07:11:57.666Z,50.92
2023-05-23T07:14:29.835Z,47.48
2023-05-23T07:16:59.501Z,48.41
2023-05-23T07:19:29.621Z,43.77
2023-05-23T07:21:59.356Z,43.72
2023-05-23T07:24:29.088Z,44.60
2023-05-23T07:26:58.854Z,42.15
2023-05-23T07:29:31.063Z,41.02
2023-05-23T07:32:01.404Z,38.55
2023-05-23T07:34:31.790Z,38.57
2023-05-23T07:37:01.415Z,39.18
2023-05-23T07:39:31.165Z,40.25
2023-05-23T07:42:01.168Z,41.37
2023-05-23T07:44:33.586Z,43.08
2023-05-23T07:47:03.357Z,45.77
2023-05-23T07:49:33.015Z,46.11
2023-05-23T07:52:02.590Z,46.19
2023-05-23T07:54:32.300Z,47.18
2023-05-23T07:57:01.930Z,47.88
2023-05-23T07:59:34.329Z,47.01
2023-05-23T08:02:03.962Z,47.61
2023-05-23T08:04:34.167Z,48.03
2023-05-23T08:07:06.196Z,46.33
2023-05-23T08:09:36.009Z,48.57
2023-05-23T08:12:06.189Z,49.56
2023-05-23T08:14:50.745Z,47.59
2023-05-23T08:17:21.782Z,47.90
2023-05-23T08:19:51.875Z,48.62
2023-05-23T08:22:21.765Z,47.24
2023-05-23T08:24:51.541Z,47.62
2023-05-23T08:27:21.256Z,48.64
2023-05-23T08:29:53.971Z,48.56
2023-05-23T08:32:23.697Z,48.21
2023-05-23T08:34:53.989Z,47.48
2023-05-23T08:37:23.643Z,48.32
2023-05-23T08:39:53.291Z,49.01
2023-05-23T08:42:23.160Z,49.83
2023-05-23T08:44:55.497Z,50.07
2023-05-23T08:47:25.186Z,50.95
2023-05-23T08:49:58.091Z,51.58
2023-05-23T08:52:30.769Z,50.72
2023-05-23T08:55:00.557Z,50.37
2023-05-23T08:57:30.945Z,49.37
2023-05-23T09:00:06.391Z,50.07
2023-05-23T09:02:36.471Z,53.17
2023-05-23T09:05:06.306Z,52.20
2023-05-23T09:07:35.989Z,51.56
2023-05-23T09:10:06.330Z,50.92
2023-05-23T09:12:37.109Z,51.26
2023-05-23T09:15:10.884Z,52.98
2023-05-23T09:17:41.005Z,53.92
2023-05-23T09:20:15.579Z,54.60
2023-05-23T09:22:49.692Z,56.75
2023-05-23T09:25:19.492Z,60.37
2023-05-23T09:27:51.562Z,64.58
2023-05-23T09:30:23.969Z,66.30
2023-05-23T09:33:12.437Z,69.32
2023-05-23T09:35:47.208Z,72.59
2023-05-23T09:38:16.998Z,74.82
2023-05-23T09:40:48.426Z,77.05
2023-05-23T09:43:20.396Z,78.73
2023-05-23T09:45:52.709Z,79.87
2023-05-23T09:48:22.448Z,85.46
2023-05-23T09:50:53.320Z,87.19
2023-05-23T09:53:23.008Z,86.54
2023-05-23T09:55:54.428Z,83.73
2023-05-23T09:58:27.274Z,87.23
2023-05-23T10:01:03.439Z,81.30
2023-05-23T10:03:38.091Z,85.62
2023-05-23T10:06:11.579Z,84.95
2023-05-23T10:08:47.558Z,82.50
2023-05-23T10:12:06.290Z,83.73
2023-05-23T10:14:40.236Z,82.15
2023-05-23T10:17:19.070Z,80.12
2023-05-23T10:19:53.976Z,81.23
2023-05-23T10:22:24.733Z,81.53
2023-05-23T10:24:54.753Z,79.83
2023-05-23T10:27:24.400Z,77.48
2023-05-23T10:29:54.947Z,77.31
2023-05-23T10:32:28.645Z,78.16
2023-05-23T10:35:04.539Z,78.55
2023-05-23T10:37:36.939Z,80.35
2023-05-23T10:40:14.847Z,79.48
2023-05-23T10:42:55.593Z,77.04
2023-05-23T10:45:27.144Z,78.51
2023-05-23T10:47:59.462Z,78.91
2023-05-23T10:50:37.535Z,77.28
2023-05-23T10:53:08.994Z,76.76
2023-05-23T10:55:39.773Z,76.51
2023-05-23T10:58:13.916Z,75.98
2023-05-23T11:00:54.155Z,77.40
2023-05-23T11:03:41.059Z,75.53
2023-05-23T11:06:32.248Z,75.51
2023-05-23T11:09:07.928Z,73.62
2023-05-23T11:11:58.287Z,72.42
2023-05-23T11:14:55.608Z,70.33
2023-05-23T11:17:36.114Z,73.86
2023-05-23T11:20:13.452Z,68.97
2023-05-23T11:22:43.290Z,67.05
2023-05-23T11:25:14.655Z,67.23
2023-05-23T11:27:44.496Z,66.55
2023-05-23T11:30:16.511Z,65.78
2023-05-23T11:32:53.370Z,70.17
2023-05-23T11:35:25.999Z,70.65
2023-05-23T11:37:55.811Z,70.15
2023-05-23T11:40:30.752Z,69.78
2023-05-23T11:43:00.907Z,68.74
2023-05-23T11:45:32.060Z,66.82
2023-05-23T11:48:01.905Z,65.38
2023-05-23T11:50:34.883Z,65.36
2023-05-23T11:53:04.986Z,62.77
2023-05-23T11:55:34.744Z,61.31
2023-05-23T11:58:04.387Z,60.22
2023-05-23T12:00:34.147Z,61.33
2023-05-23T12:03:10.378Z,60.69
2023-05-23T12:05:42.694Z,64.32
2023-05-23T12:08:14.962Z,64.06
2023-05-23T12:10:55.264Z,62.57
2023-05-23T12:13:28.236Z,60.67
2023-05-23T12:15:58.879Z,61.58
2023-05-23T12:18:32.201Z,62.07
2023-05-23T12:21:08.403Z,64.45
2023-05-23T12:23:38.890Z,61.13
2023-05-23T12:26:10.508Z,61.56
2023-05-23T12:28:42.590Z,64.04
2023-05-23T12:31:14.302Z,66.44
2023-05-23T12:33:44.759Z,66.57
2023-05-23T12:36:17.606Z,68.86
2023-05-23T12:38:48.099Z,67.80
2023-05-23T12:41:20.259Z,67.67
2023-05-23T12:43:53.847Z,65.53
2023-05-23T12:46:23.693Z,66.85
2023-05-23T12:48:53.858Z,67.41
2023-05-23T12:51:26.220Z,67.00
2023-05-23T12:53:57.662Z,66.38
2023-05-23T12:56:27.822Z,66.33
2023-05-23T12:58:58.574Z,63.08
2023-05-23T13:01:28.280Z,64.24
2023-05-23T13:03:58.029Z,66.66
2023-05-23T13:06:30.419Z,63.27
2023-05-23T13:09:00.106Z,61.00
2023-05-23T13:11:30.268Z,62.16
2023-05-23T13:14:00.251Z,63.11
2023-05-23T13:16:29.997Z,64.83
2023-05-23T13:18:59.761Z,65.60
2023-05-23T13:21:32.044Z,63.78
2023-05-23T13:24:01.656Z,66.03
2023-05-23T13:26:33.505Z,60.88
2023-05-23T13:29:03.154Z,62.72
2023-05-23T13:31:32.862Z,62.81
2023-05-23T13:34:02.536Z,64.79
2023-05-23T13:36:36.003Z,62.69
2023-05-23T13:39:05.756Z,64.23
2023-05-23T13:41:35.373Z,64.09
2023-05-23T13:44:04.989Z,64.50
2023-05-23T13:46:34.989Z,64.94
2023-05-23T13:49:04.621Z,66.10
2023-05-23T13:51:37.535Z,69.44
2023-05-23T13:54:07.493Z,69.26
2023-05-23T13:56:39.933Z,68.23
2023-05-23T13:59:10.141Z,68.95
2023-05-23T14:01:39.780Z,67.53
2023-05-23T14:04:09.538Z,64.44
2023-05-23T14:06:41.798Z,65.71
2023-05-23T14:09:11.592Z,66.07
2023-05-23T14:11:41.828Z,65.74
2023-05-23T14:14:11.425Z,66.98
2023-05-23T14:16:41.249Z,66.54
2023-05-23T14:19:11.022Z,66.49
2023-05-23T14:21:44.977Z,65.93
2023-05-23T14:24:16.886Z,65.81
2023-05-23T14:26:47.213Z,65.33
2023-05-23T14:29:16.959Z,65.23
2023-05-23T14:31:46.712Z,63.38
2023-05-23T14:34:16.450Z,60.66
2023-05-23T14:36:48.921Z,61.90
2023-05-23T14:39:18.643Z,60.42
2023-05-23T14:41:48.464Z,59.96
2023-05-23T14:44:18.137Z,59.60
2023-05-23T14:46:49.290Z,59.81
2023-05-23T14:49:19.810Z,59.43
2023-05-23T14:51:52.366Z,58.72
2023-05-23T14:54:22.344Z,60.48
2023-05-23T14:56:53.276Z,60.76
2023-05-23T14:59:23.378Z,61.64
2023-05-23T15:01:53.573Z,60.63
2023-05-23T15:04:24.558Z,62.04
2023-05-23T15:06:56.813Z,60.95
2023-05-23T15:09:26.759Z,60.38
2023-05-23T15:11:56.503Z,59.70
2023-05-23T15:14:29.683Z,60.85
2023-05-23T15:17:07.798Z,59.05
2023-05-23T15:19:39.629Z,59.16
2023-05-23T15:22:29.871Z,59.31
2023-05-23T15:25:02.409Z,59.86
2023-05-23T15:27:32.060Z,59.29
2023-05-23T15:30:01.784Z,59.21
2023-05-23T15:32:31.781Z,60.52
2023-05-23T15:35:01.485Z,60.45
2023-05-23T15:37:33.729Z,59.64
2023-05-23T15:40:04.233Z,57.90
2023-05-23T15:42:33.884Z,58.88
2023-05-23T15:45:03.625Z,60.22
2023-05-23T15:47:33.350Z,60.57
2023-05-23T15:50:03.021Z,61.29
2023-05-23T15:52:35.231Z,62.67
2023-05-23T15:55:05.926Z,61.47
2023-05-23T15:57:35.602Z,61.56
2023-05-23T16:00:05.356Z,62.81
2023-05-23T16:02:35.034Z,62.71
2023-05-23T16:05:05.835Z,61.59
2023-05-23T16:10:14.580Z,62.17
2023-05-23T16:12:44.214Z,63.21
2023-05-23T16:15:14.201Z,63.65
2023-05-23T16:17:43.981Z,63.54
2023-05-23T16:20:14.914Z,63.74
2023-05-23T16:22:47.719Z,63.97
2023-05-23T16:25:17.328Z,64.63
2023-05-23T16:27:46.983Z,65.53
2023-05-23T16:30:18.127Z,67.26
2023-05-23T16:32:47.830Z,72.01
2023-05-23T16:35:17.655Z,74.33
2023-05-23T16:37:50.057Z,74.73
2023-05-23T16:40:19.898Z,75.08
2023-05-23T16:42:49.612Z,75.49
2023-05-23T16:45:19.367Z,74.77
2023-05-23T16:47:49.046Z,74.89
2023-05-23T16:50:18.973Z,77.25
2023-05-23T16:52:54.405Z,76.28
2023-05-23T16:55:24.568Z,74.70
2023-05-23T16:57:54.235Z,76.83
2023-05-23T17:00:25.133Z,78.21
2023-05-23T17:02:54.921Z,79.66
2023-05-23T17:05:24.908Z,80.21
2023-05-23T17:07:57.334Z,82.02
2023-05-23T17:10:27.114Z,84.43
2023-05-23T17:12:56.906Z,85.99
2023-05-23T17:15:26.694Z,86.46
2023-05-23T17:17:56.452Z,86.12
2023-05-23T17:20:27.224Z,88.20
2023-05-23T17:22:59.897Z,88.04
2023-05-23T17:25:29.616Z,88.88
2023-05-23T17:27:59.598Z,89.19
2023-05-23T17:30:32.462Z,90.18
2023-05-23T17:33:03.211Z,92.01
2023-05-23T17:35:33.160Z,92.90
2023-05-23T17:38:06.022Z,93.93
2023-05-23T17:40:39.171Z,95.06
2023-05-23T17:43:09.347Z,96.84
2023-05-23T17:45:39.116Z,97.75
2023-05-23T17:48:08.838Z,99.44
2023-05-23T17:50:38.760Z,100.00
2023-05-23T17:53:11.470Z,100.00
2023-05-23T17:55:41.277Z,100.00
2023-05-23T17:58:10.912Z,100.00
2023-05-23T18:00:40.883Z,100.00
2023-05-23T18:03:10.828Z,100.00
2023-05-23T18:05:40.564Z,100.00
2023-05-23T18:08:12.898Z,100.00
2023-05-23T18:10:47.734Z,100.00
2023-05-23T18:13:17.796Z,100.00
2023-05-23T18:15:47.474Z,100.00
2023-05-23T18:18:18.270Z,100.00
2023-05-23T18:20:48.105Z,100.00
2023-05-23T18:23:20.936Z,100.00
2023-05-23T18:25:50.670Z,100.00
2023-05-23T18:28:20.355Z,100.00
2023-05-23T18:30:51.502Z,100.00
2023-05-23T18:33:21.694Z,100.00
2023-05-23T18:35:52.611Z,100.00
2023-05-23T18:38:25.009Z,100.00
2023-05-23T18:40:54.810Z,100.00
2023-05-23T18:43:25.449Z,100.00
2023-05-23T18:45:55.109Z,100.00
2023-05-23T18:48:24.863Z,100.00
2023-05-23T18:50:54.515Z,100.00
2023-05-23T18:53:26.754Z,100.00
2023-05-23T18:55:57.873Z,100.00
2023-05-23T18:58:27.519Z,100.00
2023-05-23T19:01:00.127Z,100.00
2023-05-23T19:03:29.951Z,100.00
2023-05-23T19:06:02.787Z,100.00
2023-05-23T19:08:35.729Z,100.00
2023-05-23T19:11:06.169Z,100.00
2023-05-23T19:13:36.302Z,100.00
2023-05-23T19:16:06.291Z,100.00
2023-05-23T19:18:35.987Z,100.00
2023-05-23T19:21:06.113Z,100.00
2023-05-23T19:23:38.420Z,100.00
2023-05-23T19:26:10.388Z,100.00
2023-05-23T19:28:40.395Z,100.00
2023-05-23T19:31:12.472Z,100.00
2023-05-23T19:33:42.314Z,100.00
2023-05-23T19:36:12.391Z,100.00
2023-05-23T19:38:44.839Z,100.00
2023-05-23T19:41:14.629Z,100.00
2023-05-23T19:43:44.318Z,100.00
2023-05-23T19:46:15.861Z,100.00
2023-05-23T19:48:45.841Z,100.00
2023-05-23T19:51:16.296Z,100.00
2023-05-23T19:53:48.897Z,100.00
2023-05-23T19:56:18.859Z,100.00
2023-05-23T19:58:48.535Z,100.00
2023-05-23T20:01:18.430Z,100.00
2023-05-23T20:03:48.227Z,100.00
2023-05-23T20:06:18.755Z,100.00
2023-05-23T20:08:51.149Z,100.00
2023-05-23T20:11:20.802Z,100.00
2023-05-23T20:13:50.458Z,100.00
2023-05-23T20:16:20.705Z,100.00
2023-05-23T20:18:50.483Z,100.00
2023-05-23T20:21:20.565Z,100.00
2023-05-23T20:23:53.151Z,100.00
2023-05-23T20:26:22.985Z,100.00
2023-05-23T20:28:52.715Z,100.00
2023-05-23T20:31:22.373Z,100.00
2023-05-23T20:33:52.669Z,100.00
2023-05-23T20:36:23.799Z,100.00
2023-05-23T20:38:56.091Z,100.00
2023-05-23T20:41:25.969Z,100.00
2023-05-23T20:43:55.973Z,100.00
2023-05-23T20:46:26.253Z,100.00
2023-05-23T20:48:57.639Z,100.00
2023-05-23T20:51:27.748Z,100.00
2023-05-23T20:54:00.028Z,100.00
2023-05-23T20:56:31.164Z,100.00
2023-05-23T21:01:36.392Z,100.00
2023-05-23T21:04:06.171Z,100.00
2023-05-23T21:06:36.992Z,100.00
2023-05-23T21:09:10.112Z,100.00
2023-05-23T21:11:39.795Z,100.00
2023-05-23T21:14:09.409Z,100.00
2023-05-23T21:16:39.171Z,100.00
2023-05-23T21:19:09.179Z,100.00
2023-05-23T21:21:40.105Z,100.00
2023-05-23T21:24:14.342Z,100.00
2023-05-23T21:26:44.049Z,100.00
2023-05-23T21:29:13.707Z,100.00
2023-05-23T21:31:43.392Z,100.00
2023-05-23T21:34:23.113Z,100.00
2023-05-23T21:36:54.589Z,100.00
2023-05-23T21:39:36.072Z,100.00
2023-05-23T21:42:13.007Z,100.00
2023-05-23T21:44:42.675Z,100.00
2023-05-23T21:47:12.396Z,100.00
2023-05-23T21:49:42.091Z,100.00
2023-05-23T21:52:11.737Z,100.00
2023-05-23T21:54:44.272Z,100.00
2023-05-23T21:57:13.871Z,100.00
2023-05-23T21:59:44.223Z,100.00
2023-05-23T22:02:14.124Z,100.00
2023-05-23T22:04:45.042Z,100.00
2023-05-23T22:07:14.809Z,100.00
2023-05-23T22:09:47.241Z,100.00
2023-05-23T22:12:17.679Z,100.00
2023-05-23T22:14:49.860Z,100.00
2023-05-23T22:17:23.803Z,100.00
2023-05-23T22:19:56.099Z,100.00
2023-05-23T22:22:26.127Z,100.00
2023-05-23T22:24:58.419Z,100.00
2023-05-23T22:27:28.082Z,100.00
2023-05-23T22:29:58.166Z,100.00
2023-05-23T22:32:27.849Z,100.00
2023-05-23T22:34:57.448Z,100.00
2023-05-23T22:37:27.081Z,100.00
2023-05-23T22:39:59.251Z,100.00
2023-05-23T22:42:28.940Z,100.00
2023-05-23T22:44:58.617Z,100.00
2023-05-23T22:47:29.443Z,100.00
2023-05-23T22:49:59.412Z,100.00
2023-05-23T22:52:31.597Z,100.00
2023-05-23T22:55:05.335Z,100.00
2023-05-23T22:57:35.951Z,100.00
2023-05-23T23:00:05.863Z,100.00
2023-05-23T23:02:35.585Z,100.00
2023-05-23T23:05:05.482Z,100.00
2023-05-23T23:07:35.065Z,100.00
2023-05-23T23:10:07.948Z,100.00
2023-05-23T23:12:37.563Z,100.00
2023-05-23T23:15:08.937Z,100.00
2023-05-23T23:17:39.031Z,100.00
2023-05-23T23:20:12.799Z,100.00
2023-05-23T23:22:42.991Z,100.00
2023-05-23T23:25:15.763Z,100.00
2023-05-23T23:27:45.395Z,100.00
2023-05-23T23:30:15.820Z,100.00
2023-05-23T23:32:47.732Z,100.00
2023-05-23T23:35:17.772Z,100.00
2023-05-23T23:37:47.570Z,100.00
2023-05-23T23:40:19.835Z,100.00
2023-05-23T23:42:49.511Z,100.00
2023-05-23T23:45:19.251Z,100.00
2023-05-23T23:47:49.037Z,100.00
2023-05-23T23:50:18.876Z,100.00
2023-05-23T23:52:48.569Z,100.00
2023-05-23T23:55:20.846Z,100.00
2023-05-23T23:57:50.672Z,100.00
